createdAt,value
2017-06-24T00:01:29.413Z,16.90
2017-06-24T00:03:57.913Z,17.00
2017-06-24T00:06:26.251Z,16.90
2017-06-24T00:08:53.961Z,16.90
2017-06-24T00:11:21.553Z,16.80
2017-06-24T00:13:49.999Z,16.70
2017-06-24T00:16:18.432Z,16.70
2017-06-24T00:18:46.002Z,16.70
2017-06-24T00:21:13.558Z,16.60
2017-06-24T00:23:41.999Z,16.60
2017-06-24T00:26:09.593Z,16.60
2017-06-24T00:28:38.041Z,16.60
2017-06-24T00:31:05.606Z,16.60
2017-06-24T00:33:35.110Z,16.50
2017-06-24T00:36:02.671Z,16.40
2017-06-24T00:38:31.069Z,16.40
2017-06-24T00:40:59.635Z,16.30
2017-06-24T00:43:28.161Z,16.20
2017-06-24T00:45:56.514Z,16.20
2017-06-24T00:48:24.105Z,16.20
2017-06-24T00:50:52.419Z,16.00
2017-06-24T00:53:19.978Z,16.00
2017-06-24T00:55:47.569Z,16.00
2017-06-24T00:58:15.261Z,16.10
2017-06-24T01:00:42.829Z,16.30
2017-06-24T01:03:12.367Z,16.40
2017-06-24T01:05:40.686Z,16.80
2017-06-24T01:08:08.500Z,16.80
2017-06-24T01:10:36.843Z,17.00
2017-06-24T01:13:04.764Z,17.10
2017-06-24T01:15:33.660Z,17.20
2017-06-24T01:18:02.013Z,17.30
2017-06-24T01:20:29.595Z,17.20
2017-06-24T01:22:57.153Z,17.20
2017-06-24T01:25:24.726Z,17.10
2017-06-24T01:27:52.297Z,17.10
2017-06-24T01:30:19.842Z,17.20
2017-06-24T01:32:48.858Z,17.20
2017-06-24T01:35:24.478Z,17.30
2017-06-24T01:37:53.901Z,17.20
2017-06-24T01:40:21.483Z,17.20
2017-06-24T01:42:50.107Z,17.20
2017-06-24T01:45:18.681Z,17.10
2017-06-24T01:47:47.257Z,17.20
2017-06-24T01:50:15.783Z,17.20
2017-06-24T01:52:44.328Z,17.20
2017-06-24T01:55:12.646Z,17.20
2017-06-24T01:57:48.367Z,17.20
2017-06-24T02:00:16.821Z,17.30
2017-06-24T02:02:44.401Z,17.50
2017-06-24T02:05:11.985Z,17.60
2017-06-24T02:07:39.547Z,17.50
2017-06-24T02:10:07.906Z,17.60
2017-06-24T02:12:36.268Z,17.60
2017-06-24T02:15:03.823Z,17.60
2017-06-24T02:17:31.372Z,17.70
2017-06-24T02:20:00.103Z,17.80
2017-06-24T02:22:28.609Z,17.80
2017-06-24T02:24:56.966Z,17.70
2017-06-24T02:27:25.680Z,17.70
2017-06-24T02:29:54.023Z,17.70
2017-06-24T02:32:21.759Z,17.70
2017-06-24T02:34:58.255Z,17.60
2017-06-24T02:37:26.762Z,17.60
2017-06-24T02:39:54.336Z,17.50
2017-06-24T02:42:23.778Z,17.60
2017-06-24T02:44:51.328Z,17.60
2017-06-24T02:47:19.640Z,17.70
2017-06-24T02:49:47.435Z,17.70
2017-06-24T02:52:15.733Z,17.80
2017-06-24T02:54:43.297Z,17.80
2017-06-24T02:57:11.876Z,17.90
2017-06-24T02:59:47.396Z,17.90
2017-06-24T03:02:16.946Z,17.90
2017-06-24T03:04:44.497Z,17.90
2017-06-24T03:07:12.074Z,17.90
2017-06-24T03:09:40.694Z,17.80
2017-06-24T03:12:20.213Z,17.70
2017-06-24T03:14:50.000Z,17.40
2017-06-24T03:17:17.572Z,17.40
2017-06-24T03:19:45.105Z,17.30
2017-06-24T03:22:13.445Z,17.20
2017-06-24T03:24:41.791Z,17.20
2017-06-24T03:27:09.538Z,17.10
2017-06-24T03:29:38.104Z,17.20
2017-06-24T03:32:06.644Z,17.30
2017-06-24T03:34:34.205Z,17.20
2017-06-24T03:37:01.799Z,17.30
2017-06-24T03:39:30.312Z,17.40
2017-06-24T03:41:57.855Z,17.50
2017-06-24T03:44:26.201Z,17.70
2017-06-24T03:46:53.940Z,17.70
2017-06-24T03:49:21.484Z,17.70
2017-06-24T03:51:49.930Z,17.80
2017-06-24T03:54:17.495Z,17.80
2017-06-24T03:56:45.903Z,17.90
2017-06-24T03:59:13.462Z,18.00
2017-06-24T04:01:45.075Z,18.10
2017-06-24T04:04:12.638Z,18.10
2017-06-24T04:06:41.049Z,18.10
2017-06-24T04:09:08.585Z,18.10
2017-06-24T04:11:37.084Z,18.20
2017-06-24T04:14:05.649Z,18.30
2017-06-24T04:16:34.053Z,18.40
2017-06-24T04:19:02.618Z,18.60
2017-06-24T04:21:30.176Z,18.70
2017-06-24T04:23:57.732Z,18.80
2017-06-24T04:26:27.251Z,18.80
2017-06-24T04:28:55.754Z,18.90
2017-06-24T04:31:23.298Z,18.90
2017-06-24T04:33:52.712Z,18.90
2017-06-24T04:36:28.218Z,19.00
2017-06-24T04:38:56.572Z,19.00
2017-06-24T04:41:24.131Z,19.00
2017-06-24T04:43:51.977Z,19.10
2017-06-24T04:46:19.566Z,19.20
2017-06-24T04:48:48.021Z,19.20
2017-06-24T04:51:15.665Z,19.30
2017-06-24T04:53:43.243Z,19.40
2017-06-24T04:56:11.643Z,19.50
2017-06-24T04:58:39.210Z,19.60
2017-06-24T05:01:08.646Z,19.70
2017-06-24T05:03:36.188Z,19.80
2017-06-24T05:06:03.737Z,20.00
2017-06-24T05:08:33.185Z,19.90
2017-06-24T05:11:00.751Z,20.00
2017-06-24T05:13:28.322Z,20.10
2017-06-24T05:15:56.718Z,20.40
2017-06-24T05:18:25.041Z,20.40
2017-06-24T05:20:52.855Z,20.40
2017-06-24T05:23:21.206Z,21.10
2017-06-24T05:25:56.938Z,21.00
2017-06-24T05:28:25.512Z,21.20
2017-06-24T05:30:53.050Z,21.20
2017-06-24T05:33:21.375Z,21.30
2017-06-24T05:35:48.954Z,21.30
2017-06-24T05:38:16.524Z,21.40
2017-06-24T05:40:44.627Z,21.30
2017-06-24T05:43:12.173Z,21.40
2017-06-24T05:45:39.712Z,21.40
2017-06-24T05:48:07.267Z,21.30
2017-06-24T05:50:34.917Z,21.40
2017-06-24T05:53:02.480Z,21.50
2017-06-24T05:55:30.023Z,21.50
2017-06-24T05:57:58.425Z,21.40
2017-06-24T06:00:25.974Z,21.40
2017-06-24T06:03:08.542Z,21.50
2017-06-24T06:05:36.085Z,21.40
2017-06-24T06:08:03.661Z,21.60
2017-06-24T06:10:31.237Z,21.70
2017-06-24T06:12:58.781Z,21.70
2017-06-24T06:15:26.671Z,21.50
2017-06-24T06:17:55.792Z,21.50
2017-06-24T06:20:24.118Z,21.60
2017-06-24T06:23:00.097Z,21.60
2017-06-24T06:25:27.889Z,21.70
2017-06-24T06:27:56.164Z,21.70
2017-06-24T06:30:24.761Z,21.80
2017-06-24T06:32:52.554Z,22.00
2017-06-24T06:35:20.109Z,21.90
2017-06-24T06:37:50.279Z,22.00
2017-06-24T06:40:17.834Z,21.90
2017-06-24T06:42:45.384Z,22.00
2017-06-24T06:45:13.185Z,22.10
2017-06-24T06:47:41.378Z,22.20
2017-06-24T06:50:08.946Z,22.20
2017-06-24T06:52:36.692Z,22.20
2017-06-24T06:55:05.107Z,22.20
2017-06-24T06:57:32.659Z,22.10
2017-06-24T07:00:00.639Z,22.20
2017-06-24T07:02:28.253Z,22.40
2017-06-24T07:04:57.022Z,22.60
2017-06-24T07:07:24.629Z,22.60
2017-06-24T07:09:52.224Z,22.70
2017-06-24T07:12:21.651Z,22.90
2017-06-24T07:14:50.230Z,22.80
2017-06-24T07:17:18.123Z,22.70
2017-06-24T07:19:46.049Z,22.90
2017-06-24T07:22:14.626Z,23.20
2017-06-24T07:24:43.130Z,23.30
2017-06-24T07:27:10.703Z,23.30
2017-06-24T07:29:38.711Z,23.60
2017-06-24T07:32:07.028Z,24.20
2017-06-24T07:34:34.583Z,24.20
2017-06-24T07:37:02.950Z,24.30
2017-06-24T07:39:30.514Z,24.40
2017-06-24T07:41:58.810Z,24.00
2017-06-24T07:44:40.135Z,24.00
2017-06-24T07:47:07.673Z,24.10
2017-06-24T07:49:35.227Z,24.20
2017-06-24T07:52:02.813Z,24.30
2017-06-24T07:54:30.427Z,24.30
2017-06-24T07:56:58.113Z,24.30
2017-06-24T07:59:25.721Z,24.40
2017-06-24T08:01:54.084Z,24.60
2017-06-24T08:04:24.464Z,25.00
2017-06-24T08:06:52.993Z,25.20
2017-06-24T08:09:21.461Z,25.50
2017-06-24T08:11:49.028Z,25.90
2017-06-24T08:14:17.542Z,26.10
2017-06-24T08:16:45.226Z,26.00
2017-06-24T08:19:13.260Z,25.80
2017-06-24T08:21:40.844Z,25.90
2017-06-24T08:24:08.444Z,25.90
2017-06-24T08:26:35.990Z,26.00
2017-06-24T08:29:03.556Z,26.00
2017-06-24T08:31:31.123Z,26.00
2017-06-24T08:33:59.353Z,25.90
2017-06-24T08:36:27.014Z,25.60
2017-06-24T08:38:54.648Z,25.50
2017-06-24T08:41:23.742Z,25.10
2017-06-24T08:43:51.356Z,25.10
2017-06-24T08:46:18.911Z,25.30
2017-06-24T08:48:47.242Z,25.70
2017-06-24T08:51:15.704Z,25.70
2017-06-24T08:53:43.287Z,25.40
2017-06-24T08:56:11.690Z,24.80
2017-06-24T08:58:39.276Z,24.70
2017-06-24T09:01:07.612Z,24.90
2017-06-24T09:03:35.156Z,24.90
2017-06-24T09:06:02.753Z,25.20
2017-06-24T09:08:31.154Z,25.60
2017-06-24T09:10:58.757Z,26.00
2017-06-24T09:13:26.350Z,26.70
2017-06-24T09:15:54.762Z,27.80
2017-06-24T09:18:22.303Z,28.10
2017-06-24T09:20:50.915Z,28.00
2017-06-24T09:23:19.304Z,27.80
2017-06-24T09:25:46.868Z,26.80
2017-06-24T09:28:14.468Z,26.40
2017-06-24T09:30:43.945Z,26.40
2017-06-24T09:33:11.550Z,26.20
2017-06-24T09:35:39.879Z,26.20
2017-06-24T09:38:08.310Z,26.00
2017-06-24T09:40:35.910Z,26.00
2017-06-24T09:43:03.472Z,26.10
2017-06-24T09:45:31.799Z,26.40
2017-06-24T09:47:59.398Z,27.00
2017-06-24T09:51:47.437Z,27.90
2017-06-24T09:54:15.057Z,29.40
2017-06-24T09:56:42.613Z,28.70
2017-06-24T09:59:10.959Z,29.00
2017-06-24T10:01:38.558Z,29.00
2017-06-24T10:04:06.910Z,29.70
2017-06-24T10:06:34.456Z,29.70
2017-06-24T10:09:02.042Z,29.60
2017-06-24T10:11:29.619Z,29.50
2017-06-24T10:13:57.978Z,29.40
2017-06-24T10:16:25.578Z,29.40
2017-06-24T10:18:53.163Z,29.20
2017-06-24T10:21:20.750Z,28.70
2017-06-24T10:23:48.344Z,27.70
2017-06-24T10:26:15.920Z,27.70
2017-06-24T10:28:43.475Z,28.10
2017-06-24T10:31:11.089Z,28.10
2017-06-24T10:33:39.004Z,28.00
2017-06-24T10:36:07.360Z,26.80
2017-06-24T10:38:35.436Z,26.80
2017-06-24T10:41:03.025Z,27.10
2017-06-24T10:43:30.590Z,27.10
2017-06-24T10:45:58.418Z,27.20
2017-06-24T10:48:25.986Z,27.20
2017-06-24T10:50:53.755Z,27.20
2017-06-24T10:53:21.342Z,27.40
2017-06-24T10:55:49.285Z,27.30
2017-06-24T10:58:16.909Z,27.30
2017-06-24T11:00:44.504Z,27.30
2017-06-24T11:03:12.088Z,27.60
2017-06-24T11:05:39.729Z,27.80
2017-06-24T11:08:08.156Z,29.80
2017-06-24T11:10:35.734Z,29.70
2017-06-24T11:13:04.841Z,30.50
2017-06-24T11:15:32.733Z,30.50
2017-06-24T11:18:00.531Z,30.00
2017-06-24T11:20:28.144Z,29.60
2017-06-24T11:22:55.832Z,29.00
2017-06-24T11:25:24.235Z,28.70
2017-06-24T11:27:52.056Z,28.60
2017-06-24T11:30:19.775Z,29.10
2017-06-24T11:32:48.249Z,29.20
2017-06-24T11:35:17.095Z,28.70
2017-06-24T11:37:44.674Z,28.70
2017-06-24T11:40:12.224Z,28.30
2017-06-24T11:42:39.818Z,28.40
2017-06-24T11:45:07.395Z,28.60
2017-06-24T11:47:35.727Z,29.00
2017-06-24T11:50:03.325Z,29.00
2017-06-24T11:52:30.885Z,29.30
2017-06-24T11:54:58.661Z,29.50
2017-06-24T11:57:27.233Z,30.40
2017-06-24T11:59:54.835Z,30.30
2017-06-24T12:02:23.187Z,30.50
2017-06-24T12:04:50.778Z,30.50
2017-06-24T12:07:18.429Z,31.40
2017-06-24T12:09:45.999Z,31.90
2017-06-24T12:12:13.585Z,32.60
2017-06-24T12:14:42.231Z,32.40
2017-06-24T12:17:09.852Z,32.40
2017-06-24T12:19:38.389Z,33.50
2017-06-24T12:22:05.961Z,33.40
2017-06-24T12:24:33.545Z,33.40
2017-06-24T12:27:01.884Z,35.00
2017-06-24T12:29:29.469Z,34.90
2017-06-24T12:31:57.067Z,35.00
2017-06-24T12:34:25.425Z,33.80
2017-06-24T12:36:52.987Z,33.80
2017-06-24T12:39:20.602Z,33.60
2017-06-24T12:41:50.955Z,33.10
2017-06-24T12:44:18.511Z,33.20
2017-06-24T12:46:46.134Z,33.70
2017-06-24T12:49:14.458Z,34.50
2017-06-24T12:51:42.007Z,34.50
2017-06-24T12:54:09.587Z,34.20
2017-06-24T12:56:37.157Z,33.70
2017-06-24T12:59:04.799Z,32.70
2017-06-24T13:01:32.426Z,32.80
2017-06-24T13:04:00.033Z,32.70
2017-06-24T13:06:27.630Z,33.30
2017-06-24T13:08:55.237Z,33.60
2017-06-24T13:11:23.552Z,32.80
2017-06-24T13:13:51.119Z,32.80
2017-06-24T13:16:18.704Z,31.80
2017-06-24T13:18:49.110Z,31.30
2017-06-24T13:21:16.679Z,30.40
2017-06-24T13:23:44.280Z,30.10
2017-06-24T13:26:11.842Z,30.20
2017-06-24T13:28:39.409Z,30.10
2017-06-24T13:31:07.110Z,30.20
2017-06-24T13:33:35.430Z,30.80
2017-06-24T13:36:02.999Z,30.80
2017-06-24T13:38:30.579Z,31.50
2017-06-24T13:40:58.504Z,31.80
2017-06-24T13:43:26.103Z,31.80
2017-06-24T13:45:53.706Z,32.30
2017-06-24T13:48:21.344Z,32.90
2017-06-24T13:50:48.915Z,33.60
2017-06-24T13:53:16.513Z,33.30
2017-06-24T13:55:44.865Z,31.30
2017-06-24T13:58:12.422Z,31.20
2017-06-24T14:00:40.021Z,30.90
2017-06-24T14:03:07.625Z,30.70
2017-06-24T14:05:36.460Z,30.30
2017-06-24T14:08:04.057Z,30.00
2017-06-24T14:10:31.617Z,30.00
2017-06-24T14:12:59.234Z,29.70
2017-06-24T14:15:26.840Z,29.20
2017-06-24T14:17:54.391Z,28.50
2017-06-24T14:20:21.941Z,28.30
2017-06-24T14:22:49.516Z,28.30
2017-06-24T14:25:17.080Z,28.20
2017-06-24T14:27:44.644Z,28.30
2017-06-24T14:30:12.227Z,28.40
2017-06-24T14:32:39.764Z,29.20
2017-06-24T14:35:07.342Z,29.20
2017-06-24T14:37:34.937Z,28.90
2017-06-24T14:40:03.266Z,30.00
2017-06-24T14:42:30.849Z,30.00
2017-06-24T14:44:58.474Z,30.90
2017-06-24T14:47:26.073Z,31.20
2017-06-24T14:49:53.643Z,30.80
2017-06-24T14:52:21.256Z,30.40
2017-06-24T14:54:48.846Z,29.70
2017-06-24T14:57:16.397Z,30.20
2017-06-24T14:59:43.971Z,30.30
2017-06-24T15:02:11.529Z,30.00
2017-06-24T15:04:39.106Z,29.40
2017-06-24T15:07:06.672Z,28.90
2017-06-24T15:09:34.225Z,28.40
2017-06-24T15:12:01.796Z,27.80
2017-06-24T15:14:29.384Z,27.30
2017-06-24T15:16:56.933Z,27.10
2017-06-24T15:19:24.493Z,27.10
2017-06-24T15:21:52.076Z,27.10
2017-06-24T15:24:19.611Z,27.30
2017-06-24T15:26:47.165Z,28.00
2017-06-24T15:29:14.745Z,28.80
2017-06-24T15:31:42.310Z,29.60
2017-06-24T15:34:09.879Z,29.90
2017-06-24T15:36:37.489Z,29.30
2017-06-24T15:39:05.074Z,28.50
2017-06-24T15:41:32.652Z,28.80
2017-06-24T15:44:00.240Z,29.20
2017-06-24T15:46:27.814Z,29.60
2017-06-24T15:48:55.354Z,30.00
2017-06-24T15:51:22.897Z,30.30
2017-06-24T15:53:51.358Z,30.80
2017-06-24T15:56:18.914Z,30.80
2017-06-24T15:58:46.508Z,30.90
2017-06-24T16:01:14.103Z,31.20
2017-06-24T16:03:41.658Z,30.70
2017-06-24T16:06:09.211Z,29.70
2017-06-24T16:08:37.601Z,29.20
2017-06-24T16:11:05.195Z,29.20
2017-06-24T16:13:33.396Z,29.50
2017-06-24T16:16:01.226Z,30.10
2017-06-24T16:18:30.116Z,30.00
2017-06-24T16:20:57.672Z,29.80
2017-06-24T16:23:25.236Z,29.80
2017-06-24T16:25:53.566Z,30.60
2017-06-24T16:28:21.141Z,30.60
2017-06-24T16:30:48.701Z,30.60
2017-06-24T16:33:16.692Z,31.10
2017-06-24T16:35:44.221Z,31.10
2017-06-24T16:38:11.823Z,31.00
2017-06-24T16:40:40.181Z,30.40
2017-06-24T16:43:07.750Z,30.40
2017-06-24T16:45:35.324Z,29.90
2017-06-24T16:48:03.144Z,29.20
2017-06-24T16:50:30.713Z,28.50
2017-06-24T16:52:58.271Z,27.80
2017-06-24T16:55:26.840Z,27.60
2017-06-24T16:57:54.411Z,27.00
2017-06-24T17:00:22.719Z,26.30
2017-06-24T17:02:50.307Z,26.20
2017-06-24T17:05:17.858Z,26.00
2017-06-24T17:07:45.420Z,25.80
2017-06-24T17:10:13.218Z,25.70
2017-06-24T17:12:40.785Z,25.60
2017-06-24T17:15:08.301Z,25.60
2017-06-24T17:17:35.893Z,25.60
2017-06-24T17:20:03.451Z,25.50
2017-06-24T17:22:31.032Z,25.40
2017-06-24T17:24:59.644Z,25.30
2017-06-24T17:27:27.200Z,25.20
2017-06-24T17:29:54.757Z,25.20
2017-06-24T17:32:22.398Z,25.10
2017-06-24T17:34:49.949Z,24.90
2017-06-24T17:37:17.501Z,24.90
2017-06-24T17:39:45.075Z,24.80
2017-06-24T17:42:12.644Z,24.70
2017-06-24T17:44:40.215Z,24.60
2017-06-24T17:47:07.782Z,24.60
2017-06-24T17:49:35.317Z,24.50
2017-06-24T17:52:02.906Z,24.40
2017-06-24T17:54:30.464Z,24.30
2017-06-24T17:56:58.034Z,24.30
2017-06-24T17:59:25.599Z,24.30
2017-06-24T18:01:53.191Z,24.20
2017-06-24T18:04:20.775Z,24.10
2017-06-24T18:06:48.340Z,24.00
2017-06-24T18:09:15.925Z,24.00
2017-06-24T18:11:44.259Z,23.80
2017-06-24T18:14:11.824Z,23.80
2017-06-24T18:16:39.408Z,23.70
2017-06-24T18:19:06.974Z,23.70
2017-06-24T18:21:34.521Z,23.70
2017-06-24T18:24:02.095Z,23.60
2017-06-24T18:26:29.655Z,23.50
2017-06-24T18:28:57.192Z,23.50
2017-06-24T18:31:24.766Z,23.50
2017-06-24T18:33:52.331Z,23.50
2017-06-24T18:36:19.877Z,23.40
2017-06-24T18:38:47.440Z,23.40
2017-06-24T18:41:14.975Z,23.40
2017-06-24T18:43:43.289Z,23.30
2017-06-24T18:46:10.892Z,23.30
2017-06-24T18:48:38.450Z,23.30
2017-06-24T18:51:06.014Z,23.30
2017-06-24T18:53:33.604Z,23.20
2017-06-24T18:56:01.932Z,23.10
2017-06-24T18:58:29.495Z,23.10
2017-06-24T19:00:57.072Z,23.00
2017-06-24T19:03:24.626Z,23.00
2017-06-24T19:05:52.163Z,22.90
2017-06-24T19:08:19.749Z,22.80
2017-06-24T19:10:47.301Z,22.70
2017-06-24T19:13:15.619Z,22.70
2017-06-24T19:15:44.146Z,22.70
2017-06-24T19:18:12.464Z,22.50
2017-06-24T19:20:40.007Z,22.50
2017-06-24T19:23:08.330Z,22.20
2017-06-24T19:25:35.873Z,22.20
2017-06-24T19:28:03.425Z,22.10
2017-06-24T19:30:31.787Z,22.00
2017-06-24T19:33:00.097Z,22.00
2017-06-24T19:35:27.641Z,21.90
2017-06-24T19:37:55.215Z,22.00
2017-06-24T19:40:23.560Z,21.80
2017-06-24T19:42:51.097Z,21.80
2017-06-24T19:45:18.656Z,21.80
2017-06-24T19:47:46.231Z,21.70
2017-06-24T19:50:22.003Z,21.60
2017-06-24T19:52:49.550Z,21.60
2017-06-24T19:55:17.103Z,21.50
2017-06-24T19:57:44.675Z,21.40
2017-06-24T20:00:12.214Z,21.40
2017-06-24T20:02:39.743Z,21.30
2017-06-24T20:05:08.098Z,21.20
2017-06-24T20:07:35.632Z,21.10
2017-06-24T20:10:03.165Z,21.10
2017-06-24T20:12:31.519Z,21.00
2017-06-24T20:14:59.063Z,21.00
2017-06-24T20:17:26.600Z,21.00
2017-06-24T20:19:54.160Z,20.90
2017-06-24T20:22:21.699Z,20.90
2017-06-24T20:24:50.033Z,20.80
2017-06-24T20:27:17.584Z,20.80
2017-06-24T20:29:45.140Z,20.80
2017-06-24T20:32:12.719Z,20.70
2017-06-24T20:34:40.289Z,20.70
2017-06-24T20:37:07.847Z,20.70
2017-06-24T20:39:35.420Z,20.60
2017-06-24T20:42:02.997Z,20.50
2017-06-24T20:44:30.548Z,20.50
2017-06-24T20:46:58.090Z,20.40
2017-06-24T20:49:25.662Z,20.40
2017-06-24T20:51:53.222Z,20.30
2017-06-24T20:54:20.784Z,20.30
2017-06-24T20:56:48.343Z,20.20
2017-06-24T20:59:15.864Z,20.20
2017-06-24T21:01:43.397Z,20.10
2017-06-24T21:04:11.947Z,20.00
2017-06-24T21:06:40.269Z,19.90
2017-06-24T21:09:07.819Z,19.90
2017-06-24T21:11:35.377Z,19.70
2017-06-24T21:14:02.911Z,19.60
2017-06-24T21:16:30.456Z,19.50
2017-06-24T21:18:58.030Z,19.40
2017-06-24T21:21:25.564Z,19.30
2017-06-24T21:23:53.129Z,19.30
2017-06-24T21:26:20.686Z,19.30
2017-06-24T21:28:48.217Z,19.20
2017-06-24T21:31:15.755Z,19.20
2017-06-24T21:33:44.106Z,19.00
2017-06-24T21:36:11.638Z,19.00
2017-06-24T21:38:39.151Z,18.90
2017-06-24T21:41:06.712Z,18.80
2017-06-24T21:43:34.263Z,18.70
2017-06-24T21:46:01.814Z,18.70
2017-06-24T21:48:29.383Z,18.60
2017-06-24T21:50:56.968Z,18.70
2017-06-24T21:53:24.502Z,18.70
2017-06-24T21:55:52.065Z,18.80
2017-06-24T21:58:19.614Z,18.80
2017-06-24T22:00:47.589Z,18.90
2017-06-24T22:03:15.625Z,18.90
2017-06-24T22:05:43.166Z,18.80
2017-06-24T22:08:10.794Z,19.00
2017-06-24T22:10:38.352Z,19.00
2017-06-24T22:13:05.887Z,19.10
2017-06-24T22:15:33.428Z,19.10
2017-06-24T22:18:00.989Z,19.10
2017-06-24T22:20:28.524Z,19.10
2017-06-24T22:22:56.078Z,19.10
2017-06-24T22:25:23.637Z,19.10
2017-06-24T22:27:51.209Z,19.10
2017-06-24T22:30:18.752Z,19.20
2017-06-24T22:32:46.339Z,19.20
2017-06-24T22:35:13.870Z,19.10
2017-06-24T22:37:44.557Z,19.00
2017-06-24T22:40:12.132Z,19.00
2017-06-24T22:42:39.680Z,19.00
2017-06-24T22:45:07.247Z,19.00
2017-06-24T22:47:34.838Z,19.00
2017-06-24T22:50:02.401Z,18.90
2017-06-24T22:52:29.967Z,18.80
2017-06-24T22:54:57.549Z,18.60
2017-06-24T22:57:25.118Z,18.50
2017-06-24T22:59:52.673Z,18.30
2017-06-24T23:02:20.218Z,18.30
2017-06-24T23:04:47.777Z,18.10
2017-06-24T23:07:15.356Z,18.00
2017-06-24T23:09:42.936Z,18.00
2017-06-24T23:12:10.481Z,18.00
2017-06-24T23:14:38.022Z,18.00
2017-06-24T23:17:05.602Z,17.90
2017-06-24T23:19:33.139Z,17.90
2017-06-24T23:22:00.662Z,17.80
2017-06-24T23:24:28.242Z,17.70
2017-06-24T23:26:55.813Z,17.70
2017-06-24T23:29:23.350Z,17.60
2017-06-24T23:31:50.910Z,17.50
2017-06-24T23:34:18.467Z,17.50
2017-06-24T23:36:46.019Z,17.40
2017-06-24T23:39:13.590Z,17.40
2017-06-24T23:41:41.116Z,17.40
2017-06-24T23:44:08.676Z,17.50
2017-06-24T23:46:36.262Z,17.60
2017-06-24T23:49:03.817Z,17.90
2017-06-24T23:51:31.361Z,18.00
2017-06-24T23:53:58.953Z,18.20
2017-06-24T23:56:26.502Z,18.50
2017-06-24T23:58:54.050Z,18.60
